Norris, Illinois
Current Conditions -  °F | °C
As of 7:54 AM on Wednesday 22 Oct 2014 (Local Time) from KPIA Reporting Station
Haze Haze  
Wind Chill: 33°   Ceiling: Unl
Heat Index: 38°   Visibility: 5mi
Dew Point: 35°   Wind: 7mph
Humidity: 89%   Direction: 60°ENE
Pressure: 30.33"   Gusts: NA
Location:  40.63°N, 90.03°W
Report Text: KPIA 221254Z 06006KT 5SM BR CLR 03/02 A3033 RMK AO2 SLP274 T00330017
Loading
Personal Weather Stations






























Interactive Weather Map
Tropical Storm Tracking
New forecast layout! Learn more

10-Day Weather Forecast

Advertisements
Track Severe Weather on mobile